Time;durP1;ratioP1;P1;durP2;ratioP2;P2;SDS_P1;SDS_P2;PMS_P1;PMS_P2;Temp;Humidity;BMP_temperature;BMP_pressure;BME280_temperature;BME280_humidity;BME280_pressure;Samples;Min_cycle;Max_cycle;Signal;HPM_P1;HPM_P2
2023/01/20 00:02:01;;;;;;;1.08;0.60;;;;;;;19.29;54.70;100064.31;5024655;28;20033;-81
2023/01/20 00:04:26;;;;;;;0.73;0.50;;;;;;;19.30;54.62;100073.28;4995574;28;20064;-81
2023/01/20 00:06:52;;;;;;;0.40;0.40;;;;;;;19.29;54.47;100079.75;5030299;28;20034;-81
2023/01/20 00:09:18;;;;;;;1.33;0.60;;;;;;;19.29;54.55;100085.97;5012421;28;20037;-81
2023/01/20 00:11:44;;;;;;;0.50;0.50;;;;;;;19.29;54.54;100083.28;5011888;28;20025;-81
2023/01/20 00:14:10;;;;;;;1.10;0.50;;;;;;;19.26;54.50;100091.91;5029232;28;20045;-81
2023/01/20 00:16:36;;;;;;;0.50;0.45;;;;;;;19.27;54.52;100085.41;5029537;28;20025;-81
2023/01/20 00:19:05;;;;;;;0.50;0.50;;;;;;;19.29;54.28;100096.81;5029239;28;20074;-81
2023/01/20 00:21:30;;;;;;;1.00;0.50;;;;;;;19.28;54.41;100100.63;5029105;28;20026;-81
2023/01/20 00:23:56;;;;;;;0.47;0.47;;;;;;;19.25;54.67;100098.41;5028658;28;20106;-81
2023/01/20 00:26:23;;;;;;;0.35;0.35;;;;;;;19.27;54.60;100101.69;5029396;28;20497;-81
2023/01/20 00:28:49;;;;;;;0.63;0.50;;;;;;;19.28;54.44;100099.78;5009549;28;20136;-81
2023/01/20 00:31:15;;;;;;;1.00;0.50;;;;;;;19.29;54.56;100102.22;5027899;28;20037;-81
2023/01/20 00:33:41;;;;;;;0.68;0.52;;;;;;;19.30;54.48;100111.22;5028973;28;20332;-81
2023/01/20 00:36:07;;;;;;;0.52;0.52;;;;;;;19.28;54.77;100110.63;5028813;28;20044;-81
2023/01/20 00:38:32;;;;;;;0.50;0.50;;;;;;;19.26;54.79;100113.56;5029450;28;20030;-81
2023/01/20 00:40:58;;;;;;;0.70;0.70;;;;;;;19.29;54.35;100110.38;5028804;28;20036;-81
2023/01/20 00:43:24;;;;;;;0.40;0.40;;;;;;;19.29;54.62;100113.06;5011218;28;20467;-81
2023/01/20 00:45:49;;;;;;;0.40;0.40;;;;;;;19.28;54.44;100111.44;5028517;28;20038;-81
2023/01/20 00:48:15;;;;;;;0.77;0.45;;;;;;;19.25;54.93;100117.38;5028542;28;20098;-81
2023/01/20 00:50:41;;;;;;;0.80;0.50;;;;;;;19.27;54.44;100115.22;5028258;28;20032;-81
2023/01/20 00:53:06;;;;;;;0.40;0.40;;;;;;;19.28;54.51;100110.63;5028020;28;20435;-81
2023/01/20 00:55:32;;;;;;;0.47;0.47;;;;;;;19.26;54.42;100102.72;5028052;28;20487;-81
2023/01/20 00:57:58;;;;;;;0.50;0.50;;;;;;;19.26;54.57;100108.16;5028737;28;20410;-81
2023/01/20 01:00:23;;;;;;;1.00;0.50;;;;;;;19.25;54.51;100106.53;5010807;28;20046;-81
2023/01/20 01:02:49;;;;;;;0.68;0.60;;;;;;;19.25;54.73;100111.94;5010848;28;20171;-81
2023/01/20 01:05:15;;;;;;;0.40;0.40;;;;;;;19.26;54.72;100110.06;5009858;28;20045;-81
2023/01/20 01:07:41;;;;;;;0.68;0.50;;;;;;;19.26;54.60;100115.47;5010229;28;20021;-81
2023/01/20 01:10:07;;;;;;;0.47;0.47;;;;;;;19.24;54.60;100115.72;5011213;28;20306;-81
2023/01/20 01:12:33;;;;;;;0.93;0.50;;;;;;;19.24;54.70;100104.88;5027661;28;20450;-81
2023/01/20 01:14:58;;;;;;;0.40;0.40;;;;;;;19.29;54.39;100120.38;5027871;28;20028;-81
2023/01/20 01:17:24;;;;;;;0.40;0.40;;;;;;;19.27;54.68;100120.63;5027885;28;20040;-81
2023/01/20 01:19:52;;;;;;;0.50;0.50;;;;;;;19.26;54.52;100123.59;5027586;28;20040;-81
2023/01/20 01:22:19;;;;;;;0.47;0.47;;;;;;;19.25;54.70;100121.97;5027774;28;20931;-81
2023/01/20 01:24:45;;;;;;;0.50;0.50;;;;;;;19.25;54.70;100117.38;5028060;28;20419;-81
2023/01/20 01:27:10;;;;;;;0.60;0.50;;;;;;;19.25;54.58;100122.78;5010381;28;20056;-81
2023/01/20 01:29:36;;;;;;;0.40;0.40;;;;;;;19.27;54.49;100126.06;5010118;28;20073;-81
2023/01/20 01:32:02;;;;;;;0.80;0.50;;;;;;;19.25;54.53;100122.78;5010213;28;20029;-81
2023/01/20 01:34:27;;;;;;;0.43;0.43;;;;;;;19.23;54.82;100119.50;4992801;28;20037;-81
2023/01/20 01:36:53;;;;;;;0.55;0.50;;;;;;;19.23;54.63;100124.09;5027708;28;20044;-81
2023/01/20 01:39:19;;;;;;;0.70;0.50;;;;;;;19.24;54.53;100126.56;4993363;28;20033;-81
2023/01/20 01:41:47;;;;;;;0.57;0.57;;;;;;;19.26;54.44;100127.13;5027053;28;20029;-81
2023/01/20 01:44:12;;;;;;;0.70;0.60;;;;;;;19.24;54.44;100140.09;5027315;28;20122;-81
2023/01/20 01:46:38;;;;;;;0.60;0.50;;;;;;;19.24;54.39;100131.97;5027563;28;20022;-81
2023/01/20 01:49:14;;;;;;;0.65;0.50;;;;;;;19.24;54.85;100131.97;5008840;28;20084;-81
2023/01/20 01:51:50;;;;;;;0.40;0.40;;;;;;;19.23;54.43;100140.34;5010159;28;20112;-81
2023/01/20 01:54:17;;;;;;;0.80;0.40;;;;;;;19.25;54.27;100133.63;5010014;28;20041;-81
2023/01/20 01:56:43;;;;;;;0.50;0.50;;;;;;;19.24;54.70;100142.81;4993323;28;20498;-81
2023/01/20 01:59:09;;;;;;;0.40;0.40;;;;;;;19.25;54.67;100146.34;5010206;28;20460;-81
2023/01/20 02:01:35;;;;;;;0.35;0.35;;;;;;;19.24;54.54;100153.66;4991202;28;20021;-81
2023/01/20 02:04:08;;;;;;;0.40;0.40;;;;;;;19.24;54.50;100153.66;4991080;28;20116;-81
2023/01/20 02:06:34;;;;;;;1.08;0.70;;;;;;;19.23;54.60;100154.72;5007931;28;20673;-81
2023/01/20 02:09:00;;;;;;;0.52;0.47;;;;;;;19.24;54.37;100159.06;5007870;28;20038;-81
2023/01/20 02:11:28;;;;;;;2.50;0.60;;;;;;;19.22;54.72;100160.41;5009118;28;20021;-81
2023/01/20 02:13:56;;;;;;;0.60;0.50;;;;;;;19.23;54.33;100173.69;5026846;28;20041;-81
2023/01/20 02:16:40;;;;;;;0.60;0.60;;;;;;;19.23;54.36;100173.69;4991534;28;20052;-81
2023/01/20 02:19:09;;;;;;;0.70;0.50;;;;;;;19.23;54.48;100180.97;5010826;28;20040;-81
2023/01/20 02:22:16;;;;;;;0.50;0.50;;;;;;;19.24;54.43;100186.16;5027342;28;20193;-81
2023/01/20 02:24:47;;;;;;;0.70;0.60;;;;;;;19.22;54.42;100188.31;4977642;28;20034;-81
2023/01/20 02:27:22;;;;;;;0.88;0.40;;;;;;;19.21;54.65;100194.78;5027366;28;20213;-82
2023/01/20 02:30:06;;;;;;;0.52;0.50;;;;;;;19.24;54.36;100197.00;5010605;28;20033;-81
2023/01/20 02:32:40;;;;;;;0.50;0.45;;;;;;;19.21;54.61;100192.06;5026789;28;20025;-82
2023/01/20 02:35:19;;;;;;;0.52;0.50;;;;;;;19.22;54.52;100204.56;5007633;28;20109;-81
2023/01/20 02:37:50;;;;;;;0.40;0.40;;;;;;;19.22;54.60;100204.56;5010176;28;20427;-81
2023/01/20 02:40:31;;;;;;;0.70;0.50;;;;;;;19.19;54.62;100206.94;5009180;28;20037;-81
2023/01/20 02:43:12;;;;;;;0.35;0.35;;;;;;;19.20;54.57;100217.53;5026910;28;20254;-81
2023/01/20 02:45:55;;;;;;;0.43;0.43;;;;;;;19.20;54.54;100222.94;5007589;28;20112;-81
2023/01/20 02:48:25;;;;;;;0.98;0.50;;;;;;;19.19;54.62;100226.72;4992150;28;20480;-81
2023/01/20 02:51:09;;;;;;;0.63;0.50;;;;;;;19.21;54.41;100227.28;5026951;28;20380;-81
2023/01/20 02:53:56;;;;;;;0.52;0.52;;;;;;;19.19;54.47;100221.31;5024744;28;20037;-81
2023/01/20 02:56:24;;;;;;;0.40;0.40;;;;;;;19.19;54.34;100229.44;5026555;28;20033;-81
2023/01/20 02:59:10;;;;;;;0.63;0.57;;;;;;;19.21;54.68;100230.00;5009181;28;20021;-82
2023/01/20 03:01:42;;;;;;;1.25;0.50;;;;;;;19.21;54.33;100221.88;5010946;28;20293;-81
2023/01/20 03:04:09;;;;;;;0.40;0.40;;;;;;;19.16;54.44;100227.22;5026758;28;20849;-82
2023/01/20 03:06:36;;;;;;;0.57;0.50;;;;;;;19.16;54.68;100229.91;5026535;28;20104;-81
2023/01/20 03:09:05;;;;;;;0.47;0.47;;;;;;;19.20;54.65;100239.22;4992726;28;20057;-81
2023/01/20 03:11:31;;;;;;;0.57;0.55;;;;;;;19.20;54.20;100236.50;5008412;28;20479;-81
2023/01/20 03:14:26;;;;;;;0.70;0.50;;;;;;;19.20;54.65;100232.97;5020357;28;20087;-82
2023/01/20 03:16:52;;;;;;;0.30;0.30;;;;;;;19.19;54.35;100226.72;5032824;28;20106;-82
2023/01/20 03:19:17;;;;;;;0.50;0.40;;;;;;;19.20;54.39;100228.38;5050488;28;20471;-81
2023/01/20 03:21:43;;;;;;;0.50;0.50;;;;;;;19.20;54.54;100224.84;5047667;28;20472;-81
2023/01/20 03:24:09;;;;;;;0.82;0.40;;;;;;;19.22;54.31;100231.66;5050298;28;20032;-81
2023/01/20 03:26:34;;;;;;;0.40;0.40;;;;;;;19.19;54.47;100232.13;5032304;28;20082;-81
2023/01/20 03:29:07;;;;;;;0.73;0.40;;;;;;;19.21;54.35;100235.41;5050556;28;20104;-81
2023/01/20 03:31:38;;;;;;;1.45;0.40;;;;;;;19.19;54.68;100234.03;5049104;28;20028;-81
2023/01/20 03:34:09;;;;;;;0.63;0.40;;;;;;;19.14;54.77;100235.59;5032640;28;20029;-82
2023/01/20 03:36:35;;;;;;;0.57;0.50;;;;;;;19.17;54.72;100239.69;5031388;28;20032;-81
2023/01/20 03:39:01;;;;;;;0.43;0.43;;;;;;;19.18;54.40;100246.78;5032211;28;20029;-81
2023/01/20 03:41:48;;;;;;;0.65;0.52;;;;;;;19.18;54.60;100246.78;5049783;28;20120;-81
2023/01/20 03:44:26;;;;;;;0.55;0.55;;;;;;;19.16;54.68;100243.47;5047827;28;20028;-81
2023/01/20 03:46:57;;;;;;;0.70;0.50;;;;;;;19.16;54.57;100248.88;5049515;28;20036;-81
2023/01/20 03:50:01;;;;;;;0.85;0.70;;;;;;;19.17;54.68;100242.41;5049887;28;20035;-81
2023/01/20 03:52:35;;;;;;;0.50;0.43;;;;;;;19.16;54.74;100248.06;5049620;28;20078;-81
2023/01/20 03:55:04;;;;;;;0.40;0.40;;;;;;;19.17;54.33;100245.13;5047885;28;20029;-83
2023/01/20 03:57:34;;;;;;;1.40;0.50;;;;;;;19.15;54.30;100247.25;5048397;28;20045;-82
2023/01/20 04:00:00;;;;;;;0.63;0.45;;;;;;;19.19;54.46;100242.97;5049842;28;20041;-82
2023/01/20 04:02:25;;;;;;;0.60;0.40;;;;;;;19.17;54.57;100237.00;5048042;28;20086;-81
2023/01/20 04:04:51;;;;;;;0.60;0.47;;;;;;;19.16;54.52;100240.75;5047968;28;20036;-82
2023/01/20 04:07:22;;;;;;;1.35;0.55;;;;;;;19.15;54.65;100244.56;5048134;28;20032;-82
2023/01/20 04:09:50;;;;;;;0.95;0.38;;;;;;;19.15;54.50;100239.13;5049241;28;20017;-82
2023/01/20 04:12:16;;;;;;;1.60;0.40;;;;;;;19.16;54.49;100238.03;5047617;28;20090;-81
2023/01/20 04:14:41;;;;;;;0.40;0.40;;;;;;;19.16;54.36;100238.03;4993565;28;20528;-81
2023/01/20 04:17:07;;;;;;;0.70;0.45;;;;;;;19.15;54.61;100241.84;5011039;28;20116;-81
2023/01/20 04:19:35;;;;;;;0.82;0.52;;;;;;;19.16;54.55;100238.03;5029411;28;20082;-81
2023/01/20 04:22:03;;;;;;;0.47;0.47;;;;;;;19.14;54.61;100241.03;5011859;28;20129;-82
2023/01/20 04:24:50;;;;;;;0.50;0.50;;;;;;;19.16;54.46;100251.59;5029202;28;20044;-81
2023/01/20 04:27:15;;;;;;;0.38;0.38;;;;;;;19.14;54.60;100241.03;5011302;28;20094;-81
2023/01/20 04:29:41;;;;;;;0.50;0.50;;;;;;;19.12;54.38;100243.13;5010731;28;20022;-81
2023/01/20 04:32:08;;;;;;;0.40;0.40;;;;;;;19.14;54.83;100245.59;5043790;28;20041;-81
2023/01/20 04:34:34;;;;;;;0.47;0.40;;;;;;;19.10;54.39;100239.06;5017659;28;20021;-82
2023/01/20 04:37:00;;;;;;;0.55;0.50;;;;;;;19.16;54.47;100246.16;5007086;28;20352;-81
2023/01/20 04:39:25;;;;;;;0.63;0.50;;;;;;;19.15;54.40;100239.13;5011767;28;20479;-81
2023/01/20 04:41:51;;;;;;;1.23;0.60;;;;;;;19.12;54.43;100239.63;5028882;28;20390;-81
2023/01/20 04:44:16;;;;;;;0.47;0.47;;;;;;;19.12;54.31;100248.56;5027734;28;20492;-81
2023/01/20 04:46:42;;;;;;;0.60;0.50;;;;;;;19.13;54.53;100246.69;5029053;28;20034;-82
2023/01/20 04:49:09;;;;;;;0.90;0.40;;;;;;;19.11;54.40;100252.34;5028633;28;20072;-81
2023/01/20 04:51:35;;;;;;;0.73;0.50;;;;;;;19.11;54.39;100246.13;5026512;28;20032;-81
2023/01/20 04:54:01;;;;;;;1.35;0.50;;;;;;;19.14;54.44;100251.88;5011011;28;20411;-81
2023/01/20 04:56:26;;;;;;;0.77;0.57;;;;;;;19.14;54.19;100253.72;5028754;28;20494;-81
2023/01/20 04:58:52;;;;;;;0.55;0.50;;;;;;;19.11;54.58;100252.34;5028611;28;20041;-81
2023/01/20 05:01:18;;;;;;;0.73;0.50;;;;;;;19.14;54.16;100251.88;5028494;28;20108;-81
2023/01/20 05:03:43;;;;;;;0.50;0.50;;;;;;;19.12;54.11;100250.47;5027718;28;20097;-82
2023/01/20 05:06:09;;;;;;;0.65;0.45;;;;;;;19.13;54.32;100257.53;5028709;28;20038;-81
2023/01/20 05:08:35;;;;;;;0.60;0.50;;;;;;;19.11;54.44;100265.09;5026393;28;20487;-81
2023/01/20 05:11:01;;;;;;;0.50;0.50;;;;;;;19.10;54.17;100260.72;5028219;28;20159;-81
2023/01/20 05:13:26;;;;;;;0.50;0.50;;;;;;;19.09;54.29;100253.66;5027049;28;20048;-81
2023/01/20 05:15:52;;;;;;;0.77;0.50;;;;;;;19.10;54.14;100256.13;5048181;28;20097;-81
2023/01/20 05:18:18;;;;;;;0.47;0.47;;;;;;;19.07;54.35;100251.19;5046480;28;20453;-81
2023/01/20 05:20:45;;;;;;;0.60;0.60;;;;;;;19.09;54.18;100256.38;5048025;28;20029;-81
2023/01/20 05:23:10;;;;;;;0.40;0.40;;;;;;;19.08;54.19;100258.25;5048336;28;20056;-81
2023/01/20 05:25:36;;;;;;;0.40;0.40;;;;;;;19.08;54.03;100265.56;5047508;28;20578;-81
2023/01/20 05:28:02;;;;;;;1.83;0.68;;;;;;;19.06;54.33;100262.28;5047420;28;20021;-81
2023/01/20 05:30:27;;;;;;;0.50;0.50;;;;;;;19.06;54.24;100268.53;5047689;28;20070;-81
2023/01/20 05:33:05;;;;;;;0.50;0.50;;;;;;;19.07;54.11;100272.03;5047845;28;20107;-81
2023/01/20 05:35:31;;;;;;;0.55;0.40;;;;;;;19.06;54.24;100281.25;5046801;28;20017;-81
2023/01/20 05:37:56;;;;;;;0.65;0.50;;;;;;;19.07;54.35;100291.00;5046112;28;20048;-81
2023/01/20 05:40:22;;;;;;;0.88;0.60;;;;;;;19.04;54.18;100295.03;5046532;28;20562;-81
2023/01/20 05:42:47;;;;;;;0.80;0.68;;;;;;;19.06;54.14;100302.91;5046802;28;20033;-82
2023/01/20 05:45:19;;;;;;;0.73;0.50;;;;;;;19.05;54.05;100307.50;5046630;28;20068;-81
2023/01/20 05:47:45;;;;;;;0.95;0.60;;;;;;;19.04;54.27;100313.16;5044525;28;20032;-81
2023/01/20 05:50:11;;;;;;;0.40;0.40;;;;;;;19.01;54.07;100313.66;5046683;28;20020;-81
2023/01/20 05:52:36;;;;;;;0.47;0.40;;;;;;;19.02;54.20;100332.34;5045543;28;20124;-81
2023/01/20 05:55:03;;;;;;;0.60;0.43;;;;;;;18.99;54.38;100327.44;5046116;28;20074;-81
2023/01/20 05:57:29;;;;;;;0.40;0.40;;;;;;;19.02;54.02;100342.38;5048193;28;20017;-82
2023/01/20 05:59:55;;;;;;;0.82;0.77;;;;;;;18.99;54.22;100341.00;5029912;28;20153;-82
2023/01/20 06:02:20;;;;;;;0.98;0.50;;;;;;;19.00;54.09;100352.63;5046538;28;20490;-81
2023/01/20 06:04:46;;;;;;;0.50;0.50;;;;;;;18.99;54.19;100353.69;5046374;28;20044;-81
2023/01/20 06:07:12;;;;;;;0.73;0.50;;;;;;;19.00;54.10;100363.47;5048035;28;20115;-82
2023/01/20 06:09:38;;;;;;;0.57;0.50;;;;;;;18.98;54.38;100360.19;5046795;28;20025;-81
2023/01/20 06:12:04;;;;;;;0.50;0.50;;;;;;;18.95;54.23;100365.03;5047817;28;20033;-81
2023/01/20 06:14:30;;;;;;;0.73;0.55;;;;;;;18.98;54.04;100360.19;5046244;28;20041;-81
2023/01/20 06:16:55;;;;;;;0.45;0.45;;;;;;;18.98;54.04;100368.31;5029964;28;20029;-81
2023/01/20 06:19:21;;;;;;;0.55;0.55;;;;;;;18.98;54.00;100382.66;5047653;28;20776;-81
2023/01/20 06:21:47;;;;;;;0.68;0.60;;;;;;;18.94;54.26;100371.50;5047587;28;20390;-81
2023/01/20 06:24:12;;;;;;;0.77;0.63;;;;;;;18.92;53.97;100376.34;5029084;28;20111;-81
2023/01/20 06:26:38;;;;;;;0.70;0.50;;;;;;;18.94;53.87;100371.50;5047651;28;20055;-82
2023/01/20 06:29:04;;;;;;;0.40;0.38;;;;;;;18.95;54.01;100377.72;5047271;28;20055;-81
2023/01/20 06:31:29;;;;;;;0.57;0.40;;;;;;;18.96;54.01;100382.09;5045787;28;20025;-81
2023/01/20 06:33:55;;;;;;;0.57;0.50;;;;;;;18.95;54.10;100389.41;5047156;28;20108;-82
2023/01/20 06:36:21;;;;;;;0.50;0.50;;;;;;;18.94;53.84;100387.75;5046304;28;20033;-82
2023/01/20 06:38:49;;;;;;;0.70;0.50;;;;;;;18.95;54.10;100383.16;5047307;28;20037;-81
2023/01/20 06:41:15;;;;;;;0.50;0.50;;;;;;;18.97;53.77;100399.16;5045431;28;20114;-81
2023/01/20 06:43:40;;;;;;;1.00;0.50;;;;;;;18.90;53.66;100397.44;5047193;28;20025;-82
2023/01/20 06:46:07;;;;;;;0.50;0.50;;;;;;;18.92;54.05;100398.00;5047525;28;20099;-81
2023/01/20 06:48:32;;;;;;;0.50;0.50;;;;;;;18.93;54.18;100402.34;5050268;28;20108;-82
2023/01/20 06:51:06;;;;;;;0.45;0.45;;;;;;;18.93;54.15;100406.94;5051357;28;20116;-82
2023/01/20 06:53:31;;;;;;;0.77;0.57;;;;;;;18.90;54.00;100408.28;5031544;28;20096;-81
2023/01/20 06:55:57;;;;;;;0.55;0.55;;;;;;;18.89;53.98;100417.44;5051063;28;20029;-81
2023/01/20 06:58:24;;;;;;;0.47;0.47;;;;;;;18.91;53.86;100411.78;5033474;28;20105;-81
2023/01/20 07:00:50;;;;;;;0.57;0.57;;;;;;;18.89;54.06;100417.44;5050167;28;20487;-81
2023/01/20 07:03:16;;;;;;;0.57;0.50;;;;;;;18.86;54.13;100419.81;5049967;28;20029;-81
2023/01/20 07:05:41;;;;;;;1.17;0.60;;;;;;;18.87;54.05;100414.16;5049069;28;20394;-81
2023/01/20 07:08:07;;;;;;;0.60;0.60;;;;;;;18.88;54.25;100414.97;5050123;28;20108;-81
2023/01/20 07:10:33;;;;;;;0.90;0.55;;;;;;;18.86;53.87;100423.34;5049891;28;20139;-81
2023/01/20 07:12:58;;;;;;;0.73;0.50;;;;;;;18.87;54.05;100426.88;5044584;28;20068;-81
2023/01/20 07:15:24;;;;;;;0.52;0.40;;;;;;;18.85;54.06;100429.84;5013282;28;20120;-81
2023/01/20 07:17:49;;;;;;;0.40;0.40;;;;;;;18.86;53.93;100434.16;5030744;28;20434;-82
2023/01/20 07:20:15;;;;;;;0.50;0.50;;;;;;;18.85;54.03;100432.53;5031152;28;20051;-81
2023/01/20 07:22:41;;;;;;;0.50;0.50;;;;;;;18.84;53.88;100432.78;5013370;28;20033;-81
2023/01/20 07:25:07;;;;;;;1.00;0.50;;;;;;;18.83;54.05;100440.06;5030575;28;20120;-82
2023/01/20 07:27:36;;;;;;;0.47;0.47;;;;;;;18.81;54.22;100446.75;5030863;28;20036;-82
2023/01/20 07:30:01;;;;;;;0.75;0.60;;;;;;;18.84;54.26;100444.44;5031196;28;20691;-82
2023/01/20 07:32:30;;;;;;;0.50;0.50;;;;;;;18.85;54.22;100442.53;5030992;28;20035;-81
2023/01/20 07:34:55;;;;;;;0.50;0.43;;;;;;;18.86;54.24;100455.84;5030539;28;20076;-81
2023/01/20 07:37:21;;;;;;;0.60;0.60;;;;;;;18.86;53.99;100455.84;5030848;28;20033;-82
2023/01/20 07:39:47;;;;;;;0.60;0.60;;;;;;;18.86;53.86;100466.66;5030573;28;20482;-81
2023/01/20 07:42:12;;;;;;;0.68;0.63;;;;;;;18.82;54.18;100465.50;5030653;28;20040;-81
2023/01/20 07:44:38;;;;;;;0.68;0.50;;;;;;;18.82;54.02;100470.94;5030612;28;20391;-82
2023/01/20 07:47:03;;;;;;;0.68;0.50;;;;;;;18.83;54.11;100474.44;5030503;28;20024;-81
2023/01/20 07:49:29;;;;;;;0.52;0.50;;;;;;;18.83;54.05;100471.75;5030620;28;20040;-81
2023/01/20 07:51:55;;;;;;;0.50;0.50;;;;;;;18.83;54.03;100477.97;5029985;28;20074;-81
2023/01/20 07:54:20;;;;;;;0.50;0.50;;;;;;;18.82;54.02;100479.06;5030358;28;20040;-81
2023/01/20 07:56:46;;;;;;;0.80;0.60;;;;;;;18.82;54.11;100481.75;5030473;28;20021;-81
2023/01/20 07:59:12;;;;;;;0.40;0.40;;;;;;;18.83;54.02;100477.97;5011755;28;20117;-81
2023/01/20 08:01:38;;;;;;;1.02;0.55;;;;;;;18.80;54.00;100477.59;5030510;28;20455;-81
2023/01/20 08:04:03;;;;;;;1.05;0.60;;;;;;;18.79;54.29;100475.97;5012438;28;20509;-81
2023/01/20 08:06:29;;;;;;;0.73;0.60;;;;;;;18.81;54.19;100482.78;5029810;28;20027;-81
2023/01/20 08:08:59;;;;;;;0.60;0.60;;;;;;;18.80;53.92;100478.44;5030159;28;20212;-81
2023/01/20 08:11:24;;;;;;;0.52;0.50;;;;;;;18.81;54.20;100488.19;5013342;28;20393;-82
2023/01/20 08:13:50;;;;;;;0.77;0.60;;;;;;;18.82;54.06;100492.59;5029532;28;20124;-81
2023/01/20 08:16:16;;;;;;;0.75;0.50;;;;;;;18.78;54.13;100488.66;5029899;28;20433;-81
2023/01/20 08:18:42;;;;;;;0.50;0.50;;;;;;;18.78;54.07;100502.19;5029977;28;20033;-81
2023/01/20 08:21:15;;;;;;;0.60;0.60;;;;;;;18.79;54.28;100503.84;5029890;28;20115;-81
2023/01/20 08:23:41;;;;;;;0.43;0.43;;;;;;;18.77;53.94;100512.22;4996296;28;20056;-81
2023/01/20 08:26:06;;;;;;;0.50;0.50;;;;;;;18.76;53.95;100517.88;5030210;28;20664;-82
2023/01/20 08:28:33;;;;;;;0.85;0.50;;;;;;;18.77;54.45;100517.63;5031089;28;20048;-81
2023/01/20 08:31:07;;;;;;;0.70;0.57;;;;;;;18.79;54.36;100520.09;5031336;28;20032;-81
2023/01/20 08:33:34;;;;;;;0.60;0.60;;;;;;;18.79;54.35;100519.28;5011152;28;20022;-81
2023/01/20 08:36:11;;;;;;;0.75;0.60;;;;;;;18.77;54.25;100520.34;5035453;28;20029;-81
2023/01/20 08:38:37;;;;;;;0.73;0.60;;;;;;;18.81;54.19;100525.28;5051864;28;20044;-81
2023/01/20 08:41:09;;;;;;;0.60;0.60;;;;;;;18.79;54.23;100530.13;5020627;28;20076;-81
2023/01/20 08:43:35;;;;;;;0.50;0.50;;;;;;;18.76;54.54;100536.81;5029843;28;20025;-81
2023/01/20 08:46:04;;;;;;;0.60;0.60;;;;;;;18.79;54.17;100540.94;4995531;28;20039;-81
2023/01/20 08:48:29;;;;;;;0.77;0.60;;;;;;;18.76;54.40;100542.22;5029877;28;20034;-81
2023/01/20 08:50:55;;;;;;;0.85;0.60;;;;;;;18.77;54.33;100544.72;5029537;28;20109;-81
2023/01/20 08:53:20;;;;;;;0.60;0.60;;;;;;;18.79;54.04;100552.59;5029545;28;20068;-81
2023/01/20 08:55:56;;;;;;;0.77;0.77;;;;;;;18.77;54.25;100546.59;5029104;28;20133;-81
2023/01/20 08:58:22;;;;;;;0.60;0.60;;;;;;;18.77;54.56;100557.44;5029059;28;20030;-82
2023/01/20 09:00:48;;;;;;;0.65;0.50;;;;;;;18.79;54.43;100560.72;5029255;28;20383;-82
2023/01/20 09:03:13;;;;;;;0.95;0.80;;;;;;;18.79;54.12;100563.44;5029341;28;20491;-82
2023/01/20 09:05:39;;;;;;;0.45;0.45;;;;;;;18.76;54.62;100561.19;5028494;28;20160;-82
2023/01/20 09:08:05;;;;;;;0.95;0.77;;;;;;;18.80;54.33;100575.06;5029112;28;20029;-81
2023/01/20 09:10:33;;;;;;;1.17;0.60;;;;;;;18.78;54.24;100567.19;5029232;28;20026;-81
2023/01/20 09:12:59;;;;;;;0.90;0.55;;;;;;;18.77;54.45;100576.38;5018356;28;20049;-81
2023/01/20 09:15:24;;;;;;;0.50;0.50;;;;;;;18.79;54.49;100574.25;5049082;28;20111;-81
2023/01/20 09:17:50;;;;;;;1.20;0.70;;;;;;;18.80;54.31;100580.47;5028116;28;20029;-81
2023/01/20 09:20:16;;;;;;;1.00;0.57;;;;;;;18.75;54.60;100578.50;5048054;28;20467;-81
2023/01/20 09:22:41;;;;;;;1.52;0.70;;;;;;;18.77;54.64;100579.09;5047467;28;20033;-81
2023/01/20 09:25:08;;;;;;;0.50;0.50;;;;;;;18.77;54.50;100581.78;5048596;28;20153;-81
2023/01/20 09:27:37;;;;;;;0.98;0.60;;;;;;;18.79;54.51;100587.78;5048668;28;20268;-82
2023/01/20 09:30:03;;;;;;;0.90;0.70;;;;;;;18.76;54.63;100585.56;5048758;28;20051;-82
2023/01/20 09:32:29;;;;;;;0.93;0.60;;;;;;;18.78;54.48;100591.53;5048390;28;20479;-81
2023/01/20 09:34:55;;;;;;;0.70;0.60;;;;;;;18.76;54.48;100596.38;5047256;28;20039;-82
2023/01/20 09:43:53;;;;;;;1.73;0.50;;;;;;;18.80;54.41;100605.69;5047517;28;20090;-82
2023/01/20 09:46:36;;;;;;;0.50;0.50;;;;;;;18.78;54.69;100599.66;5046581;28;20037;-82
2023/01/20 09:55:18;;;;;;;0.60;0.60;;;;;;;18.80;54.67;100618.38;5046443;28;20036;-81
2023/01/20 09:57:50;;;;;;;0.60;0.60;;;;;;;18.81;54.76;100617.34;5046585;28;20438;-81
2023/01/20 10:00:21;;;;;;;1.05;0.68;;;;;;;18.80;54.59;100630.06;5046555;28;20032;-81
2023/01/20 10:02:50;;;;;;;0.50;0.50;;;;;;;18.77;54.94;100630.53;5030318;28;20478;-81
2023/01/20 10:05:19;;;;;;;0.98;0.80;;;;;;;18.81;54.65;100630.88;5045680;28;20076;-82
2023/01/20 10:07:51;;;;;;;0.85;0.63;;;;;;;18.80;54.66;100638.19;5047250;28;20510;-82
2023/01/20 10:10:31;;;;;;;1.42;0.73;;;;;;;18.80;54.42;100635.47;5046580;28;20104;-82
2023/01/20 10:13:13;;;;;;;1.00;0.63;;;;;;;18.83;54.64;100639.63;5045138;28;20569;-82
2023/01/20 10:15:42;;;;;;;1.25;0.90;;;;;;;18.81;54.80;100637.09;5045530;28;20033;-82
2023/01/20 10:18:09;;;;;;;1.88;0.70;;;;;;;18.83;54.59;100634.19;5046565;28;20045;-81
2023/01/20 10:20:36;;;;;;;0.82;0.75;;;;;;;18.77;54.98;100642.19;5047438;28;20043;-81
2023/01/20 10:23:07;;;;;;;1.50;0.60;;;;;;;18.82;54.72;100648.78;5046202;28;20235;-81
2023/01/20 10:25:43;;;;;;;0.95;0.70;;;;;;;18.81;54.86;100644.41;5046343;28;20110;-81
2023/01/20 10:28:23;;;;;;;1.13;0.75;;;;;;;18.84;54.60;100652.91;5044218;28;20719;-81
2023/01/20 10:30:49;;;;;;;0.95;0.60;;;;;;;18.79;54.92;100657.38;5046304;28;20097;-81
2023/01/20 10:33:20;;;;;;;0.63;0.50;;;;;;;18.83;54.70;100658.56;5047895;28;20028;-81
2023/01/20 10:35:48;;;;;;;0.80;0.65;;;;;;;18.83;54.72;100655.84;5030066;28;20028;-81
2023/01/20 10:38:33;;;;;;;0.80;0.75;;;;;;;18.85;54.70;100657.28;5044147;28;20482;-81
2023/01/20 10:41:06;;;;;;;1.02;0.73;;;;;;;18.84;54.65;100663.75;5029354;28;20052;-82
2023/01/20 10:43:38;;;;;;;1.37;0.70;;;;;;;18.84;54.80;100669.16;5030407;28;20151;-83
2023/01/20 10:46:29;;;;;;;0.77;0.73;;;;;;;18.85;54.70;100667.28;5045813;28;20478;-83
2023/01/20 10:49:05;;;;;;;1.08;0.70;;;;;;;18.83;54.97;100662.09;5036383;28;20041;-83
2023/01/20 10:51:43;;;;;;;1.02;0.70;;;;;;;18.83;55.02;100667.50;5046130;28;20021;-83
2023/01/20 10:54:48;;;;;;;0.65;0.63;;;;;;;18.84;54.75;100663.75;5044992;28;20028;-83
2023/01/20 10:57:14;;;;;;;0.77;0.50;;;;;;;18.85;54.72;100664.56;4956965;28;20097;-83
2023/01/20 10:59:45;;;;;;;0.73;0.65;;;;;;;18.85;55.00;100670.81;5029166;28;20025;-83
2023/01/20 11:02:33;;;;;;;0.45;0.45;;;;;;;18.86;54.89;100679.75;5029665;28;20032;-83
2023/01/20 11:05:20;;;;;;;0.73;0.70;;;;;;;18.88;55.03;100681.16;5045455;28;20502;-83
2023/01/20 11:07:46;;;;;;;1.25;0.60;;;;;;;18.85;54.80;100678.94;5044149;28;20119;-82
2023/01/20 11:10:16;;;;;;;0.57;0.50;;;;;;;18.89;54.76;100688.25;5046383;28;20422;-82
2023/01/20 11:12:42;;;;;;;0.70;0.70;;;;;;;18.89;55.17;100695.56;5045279;28;20052;-82
2023/01/20 11:15:20;;;;;;;0.63;0.60;;;;;;;18.90;55.01;100695.31;5045954;28;20025;-82
2023/01/20 11:17:45;;;;;;;1.02;0.60;;;;;;;18.87;54.89;100690.38;5043526;28;20108;-82
2023/01/20 11:20:19;;;;;;;0.60;0.60;;;;;;;18.90;55.05;100698.03;5047067;28;20029;-82
2023/01/20 11:22:48;;;;;;;0.60;0.60;;;;;;;18.88;55.13;100691.19;5046200;28;20412;-82
2023/01/20 11:25:24;;;;;;;1.15;0.60;;;;;;;18.89;55.01;100688.25;5046235;28;20059;-82
2023/01/20 11:27:50;;;;;;;1.05;0.70;;;;;;;18.91;54.82;100682.59;5045426;28;20021;-82
2023/01/20 11:30:30;;;;;;;1.35;0.70;;;;;;;18.90;55.03;100683.63;5029296;28;20032;-82
2023/01/20 11:33:23;;;;;;;0.73;0.60;;;;;;;18.92;54.89;100678.81;5030149;28;20029;-82
2023/01/20 11:36:17;;;;;;;1.40;0.60;;;;;;;18.91;55.02;100686.13;5047561;28;20037;-81
2023/01/20 11:38:47;;;;;;;0.82;0.63;;;;;;;18.91;55.03;100679.88;5034789;28;20025;-81
2023/01/20 11:41:27;;;;;;;0.60;0.60;;;;;;;18.92;55.01;100678.81;5047140;28;20482;-82
2023/01/20 11:43:57;;;;;;;1.00;0.60;;;;;;;18.92;54.76;100666.09;5048785;28;20044;-82
2023/01/20 11:46:23;;;;;;;2.05;0.88;;;;;;;18.95;54.70;100673.78;5049345;28;20033;-82